sensor_id;sensor_type;location;lat;lon;timestamp;temperature;humidity
20246;DHT22;10281;54.406;18.556;2023-02-07T00:01:16;1.80;99.90
20246;DHT22;10281;54.406;18.556;2023-02-07T00:03:44;1.80;99.90
20246;DHT22;10281;54.406;18.556;2023-02-07T00:06:15;1.80;99.90
20246;DHT22;10281;54.406;18.556;2023-02-07T00:08:42;1.80;99.90
20246;DHT22;10281;54.406;18.556;2023-02-07T00:11:12;1.70;99.90
20246;DHT22;10281;54.406;18.556;2023-02-07T00:13:42;1.70;99.90
20246;DHT22;10281;54.406;18.556;2023-02-07T00:16:09;1.70;99.90
20246;DHT22;10281;54.406;18.556;2023-02-07T00:18:36;1.70;99.90
20246;DHT22;10281;54.406;18.556;2023-02-07T00:21:07;1.70;99.90
20246;DHT22;10281;54.406;18.556;2023-02-07T00:23:35;1.70;99.90
20246;DHT22;10281;54.406;18.556;2023-02-07T00:26:03;1.70;99.90
20246;DHT22;10281;54.406;18.556;2023-02-07T00:28:31;1.70;99.90
20246;DHT22;10281;54.406;18.556;2023-02-07T00:31:09;1.70;99.90
20246;DHT22;10281;54.406;18.556;2023-02-07T00:33:38;1.70;99.90
20246;DHT22;10281;54.406;18.556;2023-02-07T00:36:08;1.70;99.90
20246;DHT22;10281;54.406;18.556;2023-02-07T00:38:35;1.70;99.90
20246;DHT22;10281;54.406;18.556;2023-02-07T00:41:02;1.70;99.90
20246;DHT22;10281;54.406;18.556;2023-02-07T00:43:29;1.70;99.90
20246;DHT22;10281;54.406;18.556;2023-02-07T00:45:58;1.70;99.90
20246;DHT22;10281;54.406;18.556;2023-02-07T00:48:27;1.70;99.90
20246;DHT22;10281;54.406;18.556;2023-02-07T00:50:55;1.70;99.90
20246;DHT22;10281;54.406;18.556;2023-02-07T00:53:22;1.70;99.90
20246;DHT22;10281;54.406;18.556;2023-02-07T00:55:49;1.70;99.90
20246;DHT22;10281;54.406;18.556;2023-02-07T00:58:16;1.60;99.90
20246;DHT22;10281;54.406;18.556;2023-02-07T01:00:43;1.60;99.90
20246;DHT22;10281;54.406;18.556;2023-02-07T01:03:09;1.50;99.90
20246;DHT22;10281;54.406;18.556;2023-02-07T01:05:36;1.50;99.90
20246;DHT22;10281;54.406;18.556;2023-02-07T01:08:03;1.40;99.90
20246;DHT22;10281;54.406;18.556;2023-02-07T01:10:31;1.40;99.90
20246;DHT22;10281;54.406;18.556;2023-02-07T01:12:57;1.30;99.90
20246;DHT22;10281;54.406;18.556;2023-02-07T01:15:24;1.30;99.90
20246;DHT22;10281;54.406;18.556;2023-02-07T01:17:51;1.30;99.90
20246;DHT22;10281;54.406;18.556;2023-02-07T01:20:18;1.30;99.90
20246;DHT22;10281;54.406;18.556;2023-02-07T01:22:44;1.30;99.90
20246;DHT22;10281;54.406;18.556;2023-02-07T01:25:11;1.40;99.90
20246;DHT22;10281;54.406;18.556;2023-02-07T01:27:38;1.40;99.90
20246;DHT22;10281;54.406;18.556;2023-02-07T01:30:05;1.50;99.90
20246;DHT22;10281;54.406;18.556;2023-02-07T01:32:32;1.50;99.90
20246;DHT22;10281;54.406;18.556;2023-02-07T01:34:59;1.60;99.90
20246;DHT22;10281;54.406;18.556;2023-02-07T01:37:26;1.60;99.90
20246;DHT22;10281;54.406;18.556;2023-02-07T01:39:53;1.60;99.90
20246;DHT22;10281;54.406;18.556;2023-02-07T01:42:22;1.60;99.90
20246;DHT22;10281;54.406;18.556;2023-02-07T01:45:14;1.60;99.90
20246;DHT22;10281;54.406;18.556;2023-02-07T01:47:38;1.60;99.90
20246;DHT22;10281;54.406;18.556;2023-02-07T01:50:05;1.60;99.90
20246;DHT22;10281;54.406;18.556;2023-02-07T01:52:35;1.70;99.90
20246;DHT22;10281;54.406;18.556;2023-02-07T01:55:08;1.70;99.90
20246;DHT22;10281;54.406;18.556;2023-02-07T01:57:35;1.60;99.90
20246;DHT22;10281;54.406;18.556;2023-02-07T02:00:03;1.70;99.90
20246;DHT22;10281;54.406;18.556;2023-02-07T02:02:32;1.70;99.90
20246;DHT22;10281;54.406;18.556;2023-02-07T02:04:59;1.70;99.90
20246;DHT22;10281;54.406;18.556;2023-02-07T02:07:27;1.70;99.90
20246;DHT22;10281;54.406;18.556;2023-02-07T02:09:55;1.70;99.90
20246;DHT22;10281;54.406;18.556;2023-02-07T02:12:39;1.80;99.90
20246;DHT22;10281;54.406;18.556;2023-02-07T02:15:21;1.80;99.90
20246;DHT22;10281;54.406;18.556;2023-02-07T02:18:00;1.70;99.90
20246;DHT22;10281;54.406;18.556;2023-02-07T02:26:06;1.70;99.90
20246;DHT22;10281;54.406;18.556;2023-02-07T02:28:46;1.60;99.90
20246;DHT22;10281;54.406;18.556;2023-02-07T02:33:54;1.60;99.90
20246;DHT22;10281;54.406;18.556;2023-02-07T02:36:42;1.70;99.90
20246;DHT22;10281;54.406;18.556;2023-02-07T02:39:22;1.70;99.90
20246;DHT22;10281;54.406;18.556;2023-02-07T02:44:48;1.70;99.90
20246;DHT22;10281;54.406;18.556;2023-02-07T02:47:16;1.60;99.90
20246;DHT22;10281;54.406;18.556;2023-02-07T02:49:44;1.60;99.90
20246;DHT22;10281;54.406;18.556;2023-02-07T02:52:11;1.60;99.90
20246;DHT22;10281;54.406;18.556;2023-02-07T02:54:40;1.60;99.90
20246;DHT22;10281;54.406;18.556;2023-02-07T02:57:36;1.60;99.90
20246;DHT22;10281;54.406;18.556;2023-02-07T03:00:13;1.60;99.90
20246;DHT22;10281;54.406;18.556;2023-02-07T03:05:21;1.50;99.90
20246;DHT22;10281;54.406;18.556;2023-02-07T03:07:58;1.50;99.90
20246;DHT22;10281;54.406;18.556;2023-02-07T03:10:39;1.50;99.90
20246;DHT22;10281;54.406;18.556;2023-02-07T03:13:15;1.50;99.90
20246;DHT22;10281;54.406;18.556;2023-02-07T03:16:03;1.50;99.90
20246;DHT22;10281;54.406;18.556;2023-02-07T03:23:52;1.50;99.90
20246;DHT22;10281;54.406;18.556;2023-02-07T03:26:22;1.50;99.90
20246;DHT22;10281;54.406;18.556;2023-02-07T03:28:50;1.50;99.90
20246;DHT22;10281;54.406;18.556;2023-02-07T03:31:21;1.50;99.90
20246;DHT22;10281;54.406;18.556;2023-02-07T03:33:52;1.50;99.90
20246;DHT22;10281;54.406;18.556;2023-02-07T03:36:26;1.50;99.90
20246;DHT22;10281;54.406;18.556;2023-02-07T03:38:52;1.50;99.90
20246;DHT22;10281;54.406;18.556;2023-02-07T03:41:27;1.50;99.90
20246;DHT22;10281;54.406;18.556;2023-02-07T03:43:53;1.50;99.90
20246;DHT22;10281;54.406;18.556;2023-02-07T03:46:22;1.50;99.90
20246;DHT22;10281;54.406;18.556;2023-02-07T03:48:48;1.50;99.90
20246;DHT22;10281;54.406;18.556;2023-02-07T03:51:15;1.50;99.90
20246;DHT22;10281;54.406;18.556;2023-02-07T03:53:41;1.40;99.90
20246;DHT22;10281;54.406;18.556;2023-02-07T03:56:08;1.40;99.90
20246;DHT22;10281;54.406;18.556;2023-02-07T03:58:35;1.40;99.90
20246;DHT22;10281;54.406;18.556;2023-02-07T04:01:01;1.40;99.90
20246;DHT22;10281;54.406;18.556;2023-02-07T04:03:28;1.30;99.90
20246;DHT22;10281;54.406;18.556;2023-02-07T04:05:55;1.30;99.90
20246;DHT22;10281;54.406;18.556;2023-02-07T04:08:21;1.20;99.90
20246;DHT22;10281;54.406;18.556;2023-02-07T04:10:55;1.20;99.90
20246;DHT22;10281;54.406;18.556;2023-02-07T04:13:22;1.10;99.90
20246;DHT22;10281;54.406;18.556;2023-02-07T04:15:48;1.10;99.90
20246;DHT22;10281;54.406;18.556;2023-02-07T04:18:15;1.00;99.90
20246;DHT22;10281;54.406;18.556;2023-02-07T04:20:42;1.00;99.90
20246;DHT22;10281;54.406;18.556;2023-02-07T04:23:08;1.00;99.90
20246;DHT22;10281;54.406;18.556;2023-02-07T04:25:35;0.90;99.90
20246;DHT22;10281;54.406;18.556;2023-02-07T04:28:01;0.90;99.90
20246;DHT22;10281;54.406;18.556;2023-02-07T04:30:28;0.90;99.90
20246;DHT22;10281;54.406;18.556;2023-02-07T04:32:56;0.80;99.90
20246;DHT22;10281;54.406;18.556;2023-02-07T04:35:23;0.80;99.90
20246;DHT22;10281;54.406;18.556;2023-02-07T04:37:50;0.70;99.90
20246;DHT22;10281;54.406;18.556;2023-02-07T04:40:16;0.70;99.90
20246;DHT22;10281;54.406;18.556;2023-02-07T04:42:43;0.60;99.90
20246;DHT22;10281;54.406;18.556;2023-02-07T04:45:09;0.60;99.90
20246;DHT22;10281;54.406;18.556;2023-02-07T04:47:36;0.60;99.90
20246;DHT22;10281;54.406;18.556;2023-02-07T04:50:03;0.50;99.90
20246;DHT22;10281;54.406;18.556;2023-02-07T04:52:29;0.50;99.90
20246;DHT22;10281;54.406;18.556;2023-02-07T04:54:56;0.40;99.90
20246;DHT22;10281;54.406;18.556;2023-02-07T04:57:22;0.40;99.90
20246;DHT22;10281;54.406;18.556;2023-02-07T04:59:49;0.40;99.90
20246;DHT22;10281;54.406;18.556;2023-02-07T05:02:16;0.40;99.90
20246;DHT22;10281;54.406;18.556;2023-02-07T05:04:42;0.40;99.90
20246;DHT22;10281;54.406;18.556;2023-02-07T05:07:09;0.40;99.90
20246;DHT22;10281;54.406;18.556;2023-02-07T05:09:35;0.40;99.90
20246;DHT22;10281;54.406;18.556;2023-02-07T05:12:03;0.30;99.90
20246;DHT22;10281;54.406;18.556;2023-02-07T05:14:29;0.30;99.90
20246;DHT22;10281;54.406;18.556;2023-02-07T05:16:56;0.30;99.90
20246;DHT22;10281;54.406;18.556;2023-02-07T05:19:23;0.30;99.90
20246;DHT22;10281;54.406;18.556;2023-02-07T05:21:49;0.20;99.90
20246;DHT22;10281;54.406;18.556;2023-02-07T05:24:16;0.20;99.90
20246;DHT22;10281;54.406;18.556;2023-02-07T05:26:42;0.10;99.90
20246;DHT22;10281;54.406;18.556;2023-02-07T05:29:09;0.10;99.90
20246;DHT22;10281;54.406;18.556;2023-02-07T05:31:36;0.10;99.90
20246;DHT22;10281;54.406;18.556;2023-02-07T05:34:08;0.10;99.90
20246;DHT22;10281;54.406;18.556;2023-02-07T05:36:35;0.00;99.90
20246;DHT22;10281;54.406;18.556;2023-02-07T05:39:02;0.00;99.90
20246;DHT22;10281;54.406;18.556;2023-02-07T05:41:29;0.00;99.90
20246;DHT22;10281;54.406;18.556;2023-02-07T05:43:56;0.10;99.90
20246;DHT22;10281;54.406;18.556;2023-02-07T05:46:22;0.10;99.90
20246;DHT22;10281;54.406;18.556;2023-02-07T05:48:49;0.10;99.90
20246;DHT22;10281;54.406;18.556;2023-02-07T05:51:16;0.10;99.90
20246;DHT22;10281;54.406;18.556;2023-02-07T05:53:42;0.10;99.90
20246;DHT22;10281;54.406;18.556;2023-02-07T05:56:09;0.10;99.90
20246;DHT22;10281;54.406;18.556;2023-02-07T05:58:35;0.10;99.90
20246;DHT22;10281;54.406;18.556;2023-02-07T06:01:02;0.00;99.90
20246;DHT22;10281;54.406;18.556;2023-02-07T06:03:28;0.00;99.90
20246;DHT22;10281;54.406;18.556;2023-02-07T06:05:55;0.10;99.90
20246;DHT22;10281;54.406;18.556;2023-02-07T06:08:22;0.10;99.90
20246;DHT22;10281;54.406;18.556;2023-02-07T06:10:48;0.20;99.90
20246;DHT22;10281;54.406;18.556;2023-02-07T06:13:16;0.20;99.90
20246;DHT22;10281;54.406;18.556;2023-02-07T06:15:42;0.20;99.90
20246;DHT22;10281;54.406;18.556;2023-02-07T06:18:09;0.20;99.90
20246;DHT22;10281;54.406;18.556;2023-02-07T06:20:36;0.20;99.90
20246;DHT22;10281;54.406;18.556;2023-02-07T06:23:02;0.20;99.90
20246;DHT22;10281;54.406;18.556;2023-02-07T06:25:29;0.30;99.90
20246;DHT22;10281;54.406;18.556;2023-02-07T06:27:55;0.30;99.90
20246;DHT22;10281;54.406;18.556;2023-02-07T06:30:22;0.30;99.90
20246;DHT22;10281;54.406;18.556;2023-02-07T06:32:49;0.30;99.90
20246;DHT22;10281;54.406;18.556;2023-02-07T06:35:15;0.30;99.90
20246;DHT22;10281;54.406;18.556;2023-02-07T06:37:42;0.30;99.90
20246;DHT22;10281;54.406;18.556;2023-02-07T06:40:09;0.30;99.90
20246;DHT22;10281;54.406;18.556;2023-02-07T06:42:36;0.30;99.90
20246;DHT22;10281;54.406;18.556;2023-02-07T06:45:03;0.30;99.90
20246;DHT22;10281;54.406;18.556;2023-02-07T06:47:30;0.30;99.90
20246;DHT22;10281;54.406;18.556;2023-02-07T06:49:57;0.30;99.90
20246;DHT22;10281;54.406;18.556;2023-02-07T06:52:23;0.20;99.90
20246;DHT22;10281;54.406;18.556;2023-02-07T06:54:50;0.20;99.90
20246;DHT22;10281;54.406;18.556;2023-02-07T06:57:16;0.30;99.90
20246;DHT22;10281;54.406;18.556;2023-02-07T06:59:43;0.30;99.90
20246;DHT22;10281;54.406;18.556;2023-02-07T07:02:11;0.30;99.90
20246;DHT22;10281;54.406;18.556;2023-02-07T07:04:37;0.30;99.90
20246;DHT22;10281;54.406;18.556;2023-02-07T07:07:05;0.40;99.90
20246;DHT22;10281;54.406;18.556;2023-02-07T07:09:31;0.40;99.90
20246;DHT22;10281;54.406;18.556;2023-02-07T07:11:58;0.40;99.90
20246;DHT22;10281;54.406;18.556;2023-02-07T07:14:25;0.40;99.90
20246;DHT22;10281;54.406;18.556;2023-02-07T07:16:51;0.40;99.90
20246;DHT22;10281;54.406;18.556;2023-02-07T07:19:18;0.40;99.90
20246;DHT22;10281;54.406;18.556;2023-02-07T07:21:44;0.50;99.90
20246;DHT22;10281;54.406;18.556;2023-02-07T07:24:11;0.50;99.90
20246;DHT22;10281;54.406;18.556;2023-02-07T07:26:38;0.50;99.90
20246;DHT22;10281;54.406;18.556;2023-02-07T07:29:04;0.50;99.90
20246;DHT22;10281;54.406;18.556;2023-02-07T07:31:33;0.50;99.90
20246;DHT22;10281;54.406;18.556;2023-02-07T07:33:59;0.50;99.90
20246;DHT22;10281;54.406;18.556;2023-02-07T07:36:26;0.50;99.90
20246;DHT22;10281;54.406;18.556;2023-02-07T07:38:53;0.50;99.90
20246;DHT22;10281;54.406;18.556;2023-02-07T07:41:20;0.50;99.90
20246;DHT22;10281;54.406;18.556;2023-02-07T07:43:46;0.50;99.90
20246;DHT22;10281;54.406;18.556;2023-02-07T07:46:13;0.60;99.90
20246;DHT22;10281;54.406;18.556;2023-02-07T07:48:40;0.60;99.90
20246;DHT22;10281;54.406;18.556;2023-02-07T07:51:06;0.70;99.90
20246;DHT22;10281;54.406;18.556;2023-02-07T07:53:33;0.70;99.90
20246;DHT22;10281;54.406;18.556;2023-02-07T07:55:59;0.80;99.90
20246;DHT22;10281;54.406;18.556;2023-02-07T07:58:27;0.80;99.90
20246;DHT22;10281;54.406;18.556;2023-02-07T08:00:54;0.80;99.90
20246;DHT22;10281;54.406;18.556;2023-02-07T08:03:22;0.80;99.90
20246;DHT22;10281;54.406;18.556;2023-02-07T08:05:49;0.80;99.90
20246;DHT22;10281;54.406;18.556;2023-02-07T08:08:16;0.90;99.90
20246;DHT22;10281;54.406;18.556;2023-02-07T08:10:44;0.90;99.90
20246;DHT22;10281;54.406;18.556;2023-02-07T08:13:12;1.00;99.90
20246;DHT22;10281;54.406;18.556;2023-02-07T08:15:38;1.00;99.90
20246;DHT22;10281;54.406;18.556;2023-02-07T08:18:05;1.10;99.90
20246;DHT22;10281;54.406;18.556;2023-02-07T08:20:32;1.10;99.90
20246;DHT22;10281;54.406;18.556;2023-02-07T08:22:59;1.20;99.90
20246;DHT22;10281;54.406;18.556;2023-02-07T08:25:25;1.20;99.90
20246;DHT22;10281;54.406;18.556;2023-02-07T08:27:53;1.30;99.90
20246;DHT22;10281;54.406;18.556;2023-02-07T08:30:20;1.30;99.90
20246;DHT22;10281;54.406;18.556;2023-02-07T08:32:47;1.30;99.90
20246;DHT22;10281;54.406;18.556;2023-02-07T08:35:13;1.40;99.90
20246;DHT22;10281;54.406;18.556;2023-02-07T08:37:40;1.50;99.90
20246;DHT22;10281;54.406;18.556;2023-02-07T08:40:07;1.50;99.90
20246;DHT22;10281;54.406;18.556;2023-02-07T08:42:34;1.50;99.90
20246;DHT22;10281;54.406;18.556;2023-02-07T08:45:00;1.50;99.90
20246;DHT22;10281;54.406;18.556;2023-02-07T08:47:29;1.60;99.90
20246;DHT22;10281;54.406;18.556;2023-02-07T08:49:56;1.60;99.90
20246;DHT22;10281;54.406;18.556;2023-02-07T08:52:23;1.70;99.90
20246;DHT22;10281;54.406;18.556;2023-02-07T08:54:50;1.70;99.90
20246;DHT22;10281;54.406;18.556;2023-02-07T08:57:16;1.70;99.90
20246;DHT22;10281;54.406;18.556;2023-02-07T08:59:45;1.70;99.90
20246;DHT22;10281;54.406;18.556;2023-02-07T09:02:11;1.70;99.90
20246;DHT22;10281;54.406;18.556;2023-02-07T09:04:38;1.80;99.90
20246;DHT22;10281;54.406;18.556;2023-02-07T09:07:08;1.80;99.90
20246;DHT22;10281;54.406;18.556;2023-02-07T09:09:35;1.80;99.90
20246;DHT22;10281;54.406;18.556;2023-02-07T09:12:01;1.80;99.90
20246;DHT22;10281;54.406;18.556;2023-02-07T09:14:28;1.90;99.90
20246;DHT22;10281;54.406;18.556;2023-02-07T09:16:55;1.90;99.90
20246;DHT22;10281;54.406;18.556;2023-02-07T09:19:22;1.90;99.90
20246;DHT22;10281;54.406;18.556;2023-02-07T09:21:48;1.90;99.90
20246;DHT22;10281;54.406;18.556;2023-02-07T09:24:15;1.90;99.90
20246;DHT22;10281;54.406;18.556;2023-02-07T09:26:41;2.00;99.90
20246;DHT22;10281;54.406;18.556;2023-02-07T09:29:10;2.00;99.90
20246;DHT22;10281;54.406;18.556;2023-02-07T09:31:38;2.00;99.90
20246;DHT22;10281;54.406;18.556;2023-02-07T09:34:05;2.10;99.90
20246;DHT22;10281;54.406;18.556;2023-02-07T09:36:32;2.10;99.90
20246;DHT22;10281;54.406;18.556;2023-02-07T09:38:59;2.10;99.90
20246;DHT22;10281;54.406;18.556;2023-02-07T09:41:35;2.20;99.90
20246;DHT22;10281;54.406;18.556;2023-02-07T09:44:22;2.30;99.90
20246;DHT22;10281;54.406;18.556;2023-02-07T09:46:57;2.30;99.90
20246;DHT22;10281;54.406;18.556;2023-02-07T09:49:32;2.40;99.90
20246;DHT22;10281;54.406;18.556;2023-02-07T09:52:01;2.40;99.90
20246;DHT22;10281;54.406;18.556;2023-02-07T09:54:34;2.50;99.90
20246;DHT22;10281;54.406;18.556;2023-02-07T09:57:07;2.50;99.90
20246;DHT22;10281;54.406;18.556;2023-02-07T09:59:42;2.60;99.90
20246;DHT22;10281;54.406;18.556;2023-02-07T10:02:16;2.60;99.90
20246;DHT22;10281;54.406;18.556;2023-02-07T10:04:45;2.70;99.90
20246;DHT22;10281;54.406;18.556;2023-02-07T10:07:13;2.80;99.90
20246;DHT22;10281;54.406;18.556;2023-02-07T10:09:43;2.90;99.90
20246;DHT22;10281;54.406;18.556;2023-02-07T10:12:22;2.80;99.90
20246;DHT22;10281;54.406;18.556;2023-02-07T10:15:00;2.90;99.90
20246;DHT22;10281;54.406;18.556;2023-02-07T10:17:35;3.00;99.90
20246;DHT22;10281;54.406;18.556;2023-02-07T10:20:28;3.10;99.90
20246;DHT22;10281;54.406;18.556;2023-02-07T10:23:08;3.20;99.90
20246;DHT22;10281;54.406;18.556;2023-02-07T10:25:43;3.20;99.90
20246;DHT22;10281;54.406;18.556;2023-02-07T10:29:08;3.30;99.90
20246;DHT22;10281;54.406;18.556;2023-02-07T10:31:18;3.20;99.90
20246;DHT22;10281;54.406;18.556;2023-02-07T10:33:51;3.30;99.90
20246;DHT22;10281;54.406;18.556;2023-02-07T10:36:18;3.50;99.90
20246;DHT22;10281;54.406;18.556;2023-02-07T10:38:53;3.50;99.90
20246;DHT22;10281;54.406;18.556;2023-02-07T10:41:30;3.50;99.90
20246;DHT22;10281;54.406;18.556;2023-02-07T10:43:54;3.50;99.90
20246;DHT22;10281;54.406;18.556;2023-02-07T10:46:21;3.50;99.90
20246;DHT22;10281;54.406;18.556;2023-02-07T10:48:48;3.60;99.90
20246;DHT22;10281;54.406;18.556;2023-02-07T10:54:09;3.60;99.90
20246;DHT22;10281;54.406;18.556;2023-02-07T10:56:40;3.50;99.90
20246;DHT22;10281;54.406;18.556;2023-02-07T11:01:44;3.70;99.90
20246;DHT22;10281;54.406;18.556;2023-02-07T11:04:31;3.70;99.90
20246;DHT22;10281;54.406;18.556;2023-02-07T11:06:59;3.60;99.90
20246;DHT22;10281;54.406;18.556;2023-02-07T11:09:24;3.70;99.90
20246;DHT22;10281;54.406;18.556;2023-02-07T11:11:53;3.70;99.90
20246;DHT22;10281;54.406;18.556;2023-02-07T11:14:22;3.70;99.90
20246;DHT22;10281;54.406;18.556;2023-02-07T11:16:56;3.70;99.90
20246;DHT22;10281;54.406;18.556;2023-02-07T11:19:27;3.60;99.90
20246;DHT22;10281;54.406;18.556;2023-02-07T11:22:06;3.70;99.90
20246;DHT22;10281;54.406;18.556;2023-02-07T11:24:35;3.70;99.90
20246;DHT22;10281;54.406;18.556;2023-02-07T11:27:16;3.70;99.90
20246;DHT22;10281;54.406;18.556;2023-02-07T11:29:51;3.70;99.90
20246;DHT22;10281;54.406;18.556;2023-02-07T11:32:18;3.60;99.90
20246;DHT22;10281;54.406;18.556;2023-02-07T11:34:52;3.60;99.90
20246;DHT22;10281;54.406;18.556;2023-02-07T11:37:26;3.60;99.90
20246;DHT22;10281;54.406;18.556;2023-02-07T11:39:56;3.60;99.90
20246;DHT22;10281;54.406;18.556;2023-02-07T11:42:26;3.60;99.90
20246;DHT22;10281;54.406;18.556;2023-02-07T11:44:53;3.60;99.90
20246;DHT22;10281;54.406;18.556;2023-02-07T11:47:24;3.60;99.90
20246;DHT22;10281;54.406;18.556;2023-02-07T11:49:56;3.70;99.90
20246;DHT22;10281;54.406;18.556;2023-02-07T11:55:12;3.80;99.90
20246;DHT22;10281;54.406;18.556;2023-02-07T11:57:40;3.80;99.90
20246;DHT22;10281;54.406;18.556;2023-02-07T12:00:19;3.80;99.90
20246;DHT22;10281;54.406;18.556;2023-02-07T12:02:59;3.70;99.90
20246;DHT22;10281;54.406;18.556;2023-02-07T12:05:31;3.70;99.90
20246;DHT22;10281;54.406;18.556;2023-02-07T12:08:03;3.80;99.90
20246;DHT22;10281;54.406;18.556;2023-02-07T12:10:33;3.80;99.90
20246;DHT22;10281;54.406;18.556;2023-02-07T12:13:11;3.80;99.90
20246;DHT22;10281;54.406;18.556;2023-02-07T12:18:33;3.90;99.90
20246;DHT22;10281;54.406;18.556;2023-02-07T12:21:14;3.90;99.90
20246;DHT22;10281;54.406;18.556;2023-02-07T12:23:51;3.90;99.90
20246;DHT22;10281;54.406;18.556;2023-02-07T12:26:32;4.00;99.90
20246;DHT22;10281;54.406;18.556;2023-02-07T12:32:03;3.90;99.90
20246;DHT22;10281;54.406;18.556;2023-02-07T12:40:30;4.00;99.90
20246;DHT22;10281;54.406;18.556;2023-02-07T12:43:03;4.10;99.90
20246;DHT22;10281;54.406;18.556;2023-02-07T12:48:27;4.00;99.90
20246;DHT22;10281;54.406;18.556;2023-02-07T12:53:39;4.10;99.90
20246;DHT22;10281;54.406;18.556;2023-02-07T12:59:19;4.00;99.90
20246;DHT22;10281;54.406;18.556;2023-02-07T13:01:58;4.00;99.90
20246;DHT22;10281;54.406;18.556;2023-02-07T13:05:24;3.90;99.90
20246;DHT22;10281;54.406;18.556;2023-02-07T13:07:49;3.90;99.90
20246;DHT22;10281;54.406;18.556;2023-02-07T13:10:20;3.90;99.90
20246;DHT22;10281;54.406;18.556;2023-02-07T13:13:13;3.80;99.90
20246;DHT22;10281;54.406;18.556;2023-02-07T13:16:20;3.80;99.90
20246;DHT22;10281;54.406;18.556;2023-02-07T13:24:14;3.50;99.90
20246;DHT22;10281;54.406;18.556;2023-02-07T13:26:47;3.40;99.90
20246;DHT22;10281;54.406;18.556;2023-02-07T13:29:14;3.40;99.90
20246;DHT22;10281;54.406;18.556;2023-02-07T13:31:46;3.40;99.90
20246;DHT22;10281;54.406;18.556;2023-02-07T13:34:18;3.40;99.90
20246;DHT22;10281;54.406;18.556;2023-02-07T13:36:46;3.30;99.90
20246;DHT22;10281;54.406;18.556;2023-02-07T13:39:57;3.30;99.90
20246;DHT22;10281;54.406;18.556;2023-02-07T13:42:49;3.30;99.90
20246;DHT22;10281;54.406;18.556;2023-02-07T13:45:26;3.30;99.90
20246;DHT22;10281;54.406;18.556;2023-02-07T13:48:01;3.30;99.90
20246;DHT22;10281;54.406;18.556;2023-02-07T13:50:35;3.30;99.90
20246;DHT22;10281;54.406;18.556;2023-02-07T13:55:40;3.40;99.90
20246;DHT22;10281;54.406;18.556;2023-02-07T14:01:07;3.40;99.90
20246;DHT22;10281;54.406;18.556;2023-02-07T14:03:35;3.40;99.90
20246;DHT22;10281;54.406;18.556;2023-02-07T14:06:27;3.40;99.90
20246;DHT22;10281;54.406;18.556;2023-02-07T14:09:03;3.40;99.90
20246;DHT22;10281;54.406;18.556;2023-02-07T14:11:34;3.50;99.90
20246;DHT22;10281;54.406;18.556;2023-02-07T14:14:05;3.50;99.90
20246;DHT22;10281;54.406;18.556;2023-02-07T14:16:43;3.50;99.90
20246;DHT22;10281;54.406;18.556;2023-02-07T14:19:12;3.50;99.90
20246;DHT22;10281;54.406;18.556;2023-02-07T14:21:43;3.50;99.90
20246;DHT22;10281;54.406;18.556;2023-02-07T14:24:30;3.50;99.90
20246;DHT22;10281;54.406;18.556;2023-02-07T14:26:59;3.50;99.90
20246;DHT22;10281;54.406;18.556;2023-02-07T14:32:37;3.50;99.90
20246;DHT22;10281;54.406;18.556;2023-02-07T14:35:27;3.40;99.90
20246;DHT22;10281;54.406;18.556;2023-02-07T14:37:43;3.50;99.90
20246;DHT22;10281;54.406;18.556;2023-02-07T14:40:20;3.40;99.90
20246;DHT22;10281;54.406;18.556;2023-02-07T14:42:54;3.40;99.90
20246;DHT22;10281;54.406;18.556;2023-02-07T14:45:22;3.40;99.90
20246;DHT22;10281;54.406;18.556;2023-02-07T14:47:50;3.40;99.90
20246;DHT22;10281;54.406;18.556;2023-02-07T14:50:20;3.40;99.90
20246;DHT22;10281;54.406;18.556;2023-02-07T14:52:47;3.50;99.90
20246;DHT22;10281;54.406;18.556;2023-02-07T14:55:20;3.50;99.90
20246;DHT22;10281;54.406;18.556;2023-02-07T14:57:55;3.50;99.90
20246;DHT22;10281;54.406;18.556;2023-02-07T15:00:30;3.50;99.90
20246;DHT22;10281;54.406;18.556;2023-02-07T15:03:01;3.50;99.90
20246;DHT22;10281;54.406;18.556;2023-02-07T15:05:34;3.50;99.90
20246;DHT22;10281;54.406;18.556;2023-02-07T15:08:14;3.50;99.90
20246;DHT22;10281;54.406;18.556;2023-02-07T15:10:56;3.50;99.90
20246;DHT22;10281;54.406;18.556;2023-02-07T15:13:30;3.50;99.90
20246;DHT22;10281;54.406;18.556;2023-02-07T15:16:02;3.50;99.90
20246;DHT22;10281;54.406;18.556;2023-02-07T15:18:36;3.50;99.90
20246;DHT22;10281;54.406;18.556;2023-02-07T15:21:04;3.60;99.90
20246;DHT22;10281;54.406;18.556;2023-02-07T15:23:32;3.60;99.90
20246;DHT22;10281;54.406;18.556;2023-02-07T15:26:04;3.50;99.90
20246;DHT22;10281;54.406;18.556;2023-02-07T15:28:30;3.50;99.90
20246;DHT22;10281;54.406;18.556;2023-02-07T15:31:01;3.50;99.90
20246;DHT22;10281;54.406;18.556;2023-02-07T15:33:33;3.50;99.90
20246;DHT22;10281;54.406;18.556;2023-02-07T15:38:51;3.50;99.90
20246;DHT22;10281;54.406;18.556;2023-02-07T15:41:18;3.50;99.90
20246;DHT22;10281;54.406;18.556;2023-02-07T15:43:54;3.50;99.90
20246;DHT22;10281;54.406;18.556;2023-02-07T15:46:21;3.50;99.90
20246;DHT22;10281;54.406;18.556;2023-02-07T15:48:50;3.50;99.90
20246;DHT22;10281;54.406;18.556;2023-02-07T15:51:21;3.50;99.90
20246;DHT22;10281;54.406;18.556;2023-02-07T15:53:50;3.50;99.90
20246;DHT22;10281;54.406;18.556;2023-02-07T15:56:18;3.40;99.90
20246;DHT22;10281;54.406;18.556;2023-02-07T15:58:45;3.40;99.90
20246;DHT22;10281;54.406;18.556;2023-02-07T16:01:17;3.40;99.90
20246;DHT22;10281;54.406;18.556;2023-02-07T16:03:45;3.40;99.90
20246;DHT22;10281;54.406;18.556;2023-02-07T16:06:19;3.40;99.90
20246;DHT22;10281;54.406;18.556;2023-02-07T16:08:50;3.40;99.90
20246;DHT22;10281;54.406;18.556;2023-02-07T16:11:35;3.40;99.90
20246;DHT22;10281;54.406;18.556;2023-02-07T16:14:12;3.30;99.90
20246;DHT22;10281;54.406;18.556;2023-02-07T16:16:39;3.30;99.90
20246;DHT22;10281;54.406;18.556;2023-02-07T16:19:17;3.30;99.90
20246;DHT22;10281;54.406;18.556;2023-02-07T16:21:49;3.30;99.90
20246;DHT22;10281;54.406;18.556;2023-02-07T16:24:21;3.30;99.90
20246;DHT22;10281;54.406;18.556;2023-02-07T16:26:49;3.30;99.90
20246;DHT22;10281;54.406;18.556;2023-02-07T16:29:19;3.30;99.90
20246;DHT22;10281;54.406;18.556;2023-02-07T16:31:47;3.30;99.90
20246;DHT22;10281;54.406;18.556;2023-02-07T16:34:16;3.30;99.90
20246;DHT22;10281;54.406;18.556;2023-02-07T16:36:44;3.20;99.90
20246;DHT22;10281;54.406;18.556;2023-02-07T16:39:12;3.20;99.90
20246;DHT22;10281;54.406;18.556;2023-02-07T16:41:42;3.20;99.90
20246;DHT22;10281;54.406;18.556;2023-02-07T16:44:17;3.20;99.90
20246;DHT22;10281;54.406;18.556;2023-02-07T16:46:44;3.20;99.90
20246;DHT22;10281;54.406;18.556;2023-02-07T16:49:14;3.20;99.90
20246;DHT22;10281;54.406;18.556;2023-02-07T16:51:41;3.20;99.90
20246;DHT22;10281;54.406;18.556;2023-02-07T16:54:08;3.10;99.90